Main page
METAR-TAF:

METAR-TAF

Airports :

Nueces County Airport

Robstown, Texas, United States

latitude: 27-46-42N, longitude: 097-41-25W, elevation: 79 ft

Current weather observation

The report was made 23 minutes ago, at 13:55 UTC
Wind 9 mph from the South/Southeast
Temperature 88°F
Humidity 75%
Pressure 29.79 in. Hg
Visibility: 10 miles
Scattered clouds at a height of 2100 ft
Scattered clouds at a height of 2700 ft
Broken clouds at a height of 3800 ft

METAR: KRBO 171355Z AUTO 15008KT 10SM SCT021 SCT027 BKN038 31/26 A2979 RMK AO2 T03070255

Time: 09:18 (14:18 UTC)


TAF: missing

Weather observations and forecasts of more than 4000 airports (METAR and TAF reports).

The available stations are represented by yellow and red dots on the map.

Hover mouse over dot to see the name of the station.

Then click to see weather observations and forecasts.

To change the map : click on the green buttons with a black cross to zoom in, on the green button with a dash to zoom out, or on the green arrows for adjacent maps.


METAR-TAF: